Grandeur Of The Seas — C6SE3 — position and weather

sailwx.info

Track history (hours):
 
Tides and Currents Weather Stations Pressure Air Temp Water Temp Dewpoint Dewpoint Depression Visibility Wind Speed Wind Dir Waves Ship Positions

Grandeur Of The Seas

Operator: Royal Caribbean Cruises Ltd

Last reported at 2016-Oct-01 14:31 UTC. Time now 2016-Oct-01 15:30 UTC.
Position N 42°21' W 071°02'.

Type: Passenger vessel. MMSI: 311315000.

Date/timePositionNaut miles runAvg speedWind from/ knotsBaromVisibWave heightAir tempDewpointWater temp
2016-Oct-01 14:31N 42°21' W 071°02'0 0.5
2016-Oct-01 13:34N 42°21' W 071°01'313 7.8
2016-Sep-29 21:33N 39°06' W 076°24'1111.0
2016-Sep-29 20:33N 39°14' W 076°33'3 2.9
2016-Sep-29 19:32N 39°16' W 076°36'0 0.0
2016-Sep-29 16:32N 39°16' W 076°36'0 0.0
2016-Sep-29 15:32N 39°16' W 076°36'0 0.0
2016-Sep-29 14:32N 39°16' W 076°36'0 0.0
2016-Sep-29 13:32N 39°16' W 076°36'20 4.1
2016-Sep-29 08:33N 38°58' W 076°24'63418.9
2016-Sep-27 23:00N 32°54' W 065°42'   140 / 171009.0 5.4 2.026.020.228.0
2016-Sep-24 22:33N 38°54' W 076°24'1515.1
2016-Sep-24 21:34N 39°09' W 076°25'11 5.3
2016-Sep-24 19:33N 39°16' W 076°36'0 0.0
2016-Sep-24 18:33N 39°16' W 076°36'0 0.0
2016-Sep-24 17:27N 39°16' W 076°36'0 0.0
2016-Sep-24 16:33N 39°16' W 076°36'0 0.0
2016-Sep-24 14:27N 39°16' W 076°36'0 0.0
2016-Sep-24 12:33N 39°16' W 076°36'0 0.1
2016-Sep-24 10:34N 39°16' W 076°36'8 8.3
2016-Sep-24 09:33N 39°11' W 076°27'9414.7
2016-Sep-24 03:08N 37°38' W 076°07'4015.5
2016-Sep-24 00:33N 36°58' W 075°60'9813.9
2016-Sep-23 17:29N 37°43' W 074°10'1415.1
2016-Sep-23 16:32N 37°51' W 073°54'1814.8
2016-Sep-23 15:19N 38°01' W 073°35'19215.0
2016-Sep-23 02:33N 39°43' W 070°07'  
Track history (hours):
 
Tides and Currents Weather Stations Pressure Air Temp Water Temp Dewpoint Dewpoint Depression Visibility Wind Speed Wind Dir Waves Ship Positions

Grandeur Of The Seas

Operator: Royal Caribbean Cruises Ltd

Last reported at 2016-Oct-01 14:31 UTC. Time now 2016-Oct-01 15:30 UTC.
Position N 42°21' W 071°02'.

Type: Passenger vessel. MMSI: 311315000.

Date/timePositionNaut miles runAvg speedWind from/ knotsBaromVisibWave heightAir tempDewpointWater temp
2016-Oct-01 14:31N 42°21' W 071°02'0 0.5
2016-Oct-01 13:34N 42°21' W 071°01'313 7.8
2016-Sep-29 21:33N 39°06' W 076°24'1111.0
2016-Sep-29 20:33N 39°14' W 076°33'3 2.9
2016-Sep-29 19:32N 39°16' W 076°36'0 0.0
2016-Sep-29 16:32N 39°16' W 076°36'0 0.0
2016-Sep-29 15:32N 39°16' W 076°36'0 0.0
2016-Sep-29 14:32N 39°16' W 076°36'0 0.0
2016-Sep-29 13:32N 39°16' W 076°36'20 4.1
2016-Sep-29 08:33N 38°58' W 076°24'63418.9
2016-Sep-27 23:00N 32°54' W 065°42'   140 / 171009.0 5.4 2.026.020.228.0
2016-Sep-24 22:33N 38°54' W 076°24'1515.1
2016-Sep-24 21:34N 39°09' W 076°25'11 5.3
2016-Sep-24 19:33N 39°16' W 076°36'0 0.0
2016-Sep-24 18:33N 39°16' W 076°36'0 0.0
2016-Sep-24 17:27N 39°16' W 076°36'0 0.0
2016-Sep-24 16:33N 39°16' W 076°36'0 0.0
2016-Sep-24 14:27N 39°16' W 076°36'0 0.0
2016-Sep-24 12:33N 39°16' W 076°36'0 0.1
2016-Sep-24 10:34N 39°16' W 076°36'8 8.3
2016-Sep-24 09:33N 39°11' W 076°27'9414.7
2016-Sep-24 03:08N 37°38' W 076°07'4015.5
2016-Sep-24 00:33N 36°58' W 075°60'9813.9
2016-Sep-23 17:29N 37°43' W 074°10'1415.1
2016-Sep-23 16:32N 37°51' W 073°54'1814.8
2016-Sep-23 15:19N 38°01' W 073°35'19215.0
2016-Sep-23 02:33N 39°43' W 070°07'  

Dump ship's entire track history